<?xml version="1.0" encoding="UTF-8" standalone="no" ?>
<gpx xmlns="http://www.topografix.com/GPX/1/1" xmlns:xsi="http://www.w3.org/2001/XMLSchema-instance" xsi:schemaLocation="http://www.topografix.com/GPX/1/1 http://www.topografix.com/GPX/1/1/gpx.xsd" version="1.1" creator="VisuGPX - https://www.visugpx.com">
  <metadata>
    <name>65 - RAQUETTES - Couraduque - Piste Mystériseuse</name>
    <desc><![CDATA[Randonnée en lieu sécurisé à cause du risque d'avalanches 4/5 Soleil]]></desc>
  </metadata>
  <trk>
    <name><![CDATA[ACTIVE LOG 001]]></name>
    <trkseg>
      <trkpt lat="42.99032" lon="-0.20206">
        <ele>1372.419434</ele>
        <time>2013-02-16T08:47:21Z</time>
      </trkpt>
      <trkpt lat="42.99033" lon="-0.20206">
        <ele>1372.419434</ele>
        <time>2013-02-16T08:47:22Z</time>
      </trkpt>
      <trkpt lat="42.99033" lon="-0.20206">
        <ele>1371.457764</ele>
        <time>2013-02-16T08:47:23Z</time>
      </trkpt>
      <trkpt lat="42.99035" lon="-0.20204">
        <ele>1368.573975</ele>
        <time>2013-02-16T08:47:36Z</time>
      </trkpt>
      <trkpt lat="42.99037" lon="-0.20204">
        <ele>1371.938477</ele>
        <time>2013-02-16T08:47:50Z</time>
      </trkpt>
      <trkpt lat="42.99039" lon="-0.20206">
        <ele>1371.457764</ele>
        <time>2013-02-16T08:48:15Z</time>
      </trkpt>
      <trkpt lat="42.99059" lon="-0.20218">
        <ele>1371.457764</ele>
        <time>2013-02-16T08:48:38Z</time>
      </trkpt>
      <trkpt lat="42.99074" lon="-0.2025">
        <ele>1370.496582</ele>
        <time>2013-02-16T08:49:02Z</time>
      </trkpt>
      <trkpt lat="42.9909" lon="-0.20264">
        <ele>1370.015869</ele>
        <time>2013-02-16T08:49:18Z</time>
      </trkpt>
      <trkpt lat="42.99094" lon="-0.20268">
        <ele>1369.5354</ele>
        <time>2013-02-16T08:49:23Z</time>
      </trkpt>
      <trkpt lat="42.99098" lon="-0.20271">
        <ele>1369.054688</ele>
        <time>2013-02-16T08:49:27Z</time>
      </trkpt>
      <trkpt lat="42.99101" lon="-0.20272">
        <ele>1369.5354</ele>
        <time>2013-02-16T08:49:47Z</time>
      </trkpt>
      <trkpt lat="42.99099" lon="-0.2028">
        <ele>1369.5354</ele>
        <time>2013-02-16T08:50:07Z</time>
      </trkpt>
      <trkpt lat="42.99099" lon="-0.20281">
        <ele>1369.5354</ele>
        <time>2013-02-16T08:50:08Z</time>
      </trkpt>
      <trkpt lat="42.99103" lon="-0.20305">
        <ele>1369.5354</ele>
        <time>2013-02-16T08:50:28Z</time>
      </trkpt>
      <trkpt lat="42.99106" lon="-0.20293">
        <ele>1371.938477</ele>
        <time>2013-02-16T08:50:43Z</time>
      </trkpt>
      <trkpt lat="42.99106" lon="-0.20289">
        <ele>1371.938477</ele>
        <time>2013-02-16T08:51:00Z</time>
      </trkpt>
      <trkpt lat="42.99106" lon="-0.20288">
        <ele>1371.457764</ele>
        <time>2013-02-16T08:51:01Z</time>
      </trkpt>
      <trkpt lat="42.99106" lon="-0.20274">
        <ele>1371.457764</ele>
        <time>2013-02-16T08:51:15Z</time>
      </trkpt>
      <trkpt lat="42.99104" lon="-0.20259">
        <ele>1371.938477</ele>
        <time>2013-02-16T08:51:35Z</time>
      </trkpt>
      <trkpt lat="42.99104" lon="-0.20259">
        <ele>1371.938477</ele>
        <time>2013-02-16T08:52:00Z</time>
      </trkpt>
      <trkpt lat="42.99104" lon="-0.20261">
        <ele>1371.938477</ele>
        <time>2013-02-16T08:52:30Z</time>
      </trkpt>
      <trkpt lat="42.99104" lon="-0.20262">
        <ele>1371.938477</ele>
        <time>2013-02-16T08:52:46Z</time>
      </trkpt>
      <trkpt lat="42.99104" lon="-0.20261">
        <ele>1371.457764</ele>
        <time>2013-02-16T08:53:10Z</time>
      </trkpt>
      <trkpt lat="42.99104" lon="-0.20261">
        <ele>1370.496582</ele>
        <time>2013-02-16T08:53:35Z</time>
      </trkpt>
      <trkpt lat="42.99103" lon="-0.20261">
        <ele>1371.457764</ele>
        <time>2013-02-16T08:53:37Z</time>
      </trkpt>
      <trkpt lat="42.99103" lon="-0.20259">
        <ele>1370.015869</ele>
        <time>2013-02-16T08:54:03Z</time>
      </trkpt>
      <trkpt lat="42.99103" lon="-0.20256">
        <ele>1372.419434</ele>
        <time>2013-02-16T08:54:19Z</time>
      </trkpt>
      <trkpt lat="42.99103" lon="-0.20253">
        <ele>1372.900146</ele>
        <time>2013-02-16T08:54:33Z</time>
      </trkpt>
      <trkpt lat="42.99101" lon="-0.20242">
        <ele>1374.342041</ele>
        <time>2013-02-16T08:55:05Z</time>
      </trkpt>
      <trkpt lat="42.99099" lon="-0.20236">
        <ele>1374.822754</ele>
        <time>2013-02-16T08:55:10Z</time>
      </trkpt>
      <trkpt lat="42.99094" lon="-0.20217">
        <ele>1377.226074</ele>
        <time>2013-02-16T08:55:28Z</time>
      </trkpt>
      <trkpt lat="42.99081" lon="-0.20197">
        <ele>1377.706543</ele>
        <time>2013-02-16T08:55:51Z</time>
      </trkpt>
      <trkpt lat="42.99076" lon="-0.20169">
        <ele>1377.706543</ele>
        <time>2013-02-16T08:56:14Z</time>
      </trkpt>
      <trkpt lat="42.99069" lon="-0.20144">
        <ele>1379.62915</ele>
        <time>2013-02-16T08:56:35Z</time>
      </trkpt>
      <trkpt lat="42.99064" lon="-0.20129">
        <ele>1382.032471</ele>
        <time>2013-02-16T08:56:49Z</time>
      </trkpt>
      <trkpt lat="42.99056" lon="-0.20103">
        <ele>1383.955078</ele>
        <time>2013-02-16T08:57:13Z</time>
      </trkpt>
      <trkpt lat="42.9905" lon="-0.20079">
        <ele>1386.838867</ele>
        <time>2013-02-16T08:57:36Z</time>
      </trkpt>
      <trkpt lat="42.99044" lon="-0.20056">
        <ele>1389.723145</ele>
        <time>2013-02-16T08:57:59Z</time>
      </trkpt>
      <trkpt lat="42.99041" lon="-0.20039">
        <ele>1393.087646</ele>
        <time>2013-02-16T08:58:15Z</time>
      </trkpt>
      <trkpt lat="42.9904" lon="-0.20015">
        <ele>1394.529541</ele>
        <time>2013-02-16T08:58:38Z</time>
      </trkpt>
      <trkpt lat="42.99043" lon="-0.20012">
        <ele>1395.490967</ele>
        <time>2013-02-16T08:58:54Z</time>
      </trkpt>
      <trkpt lat="42.99035" lon="-0.20016">
        <ele>1395.490967</ele>
        <time>2013-02-16T08:59:11Z</time>
      </trkpt>
      <trkpt lat="42.99039" lon="-0.20011">
        <ele>1395.010254</ele>
        <time>2013-02-16T08:59:37Z</time>
      </trkpt>
      <trkpt lat="42.99041" lon="-0.20006">
        <ele>1394.529541</ele>
        <time>2013-02-16T08:59:51Z</time>
      </trkpt>
      <trkpt lat="42.9904" lon="-0.20009">
        <ele>1394.529541</ele>
        <time>2013-02-16T09:00:41Z</time>
      </trkpt>
    </trkseg>
  </trk>
</gpx>